createdAt,value
2023-03-01T00:01:39.452Z,10.60
2023-03-01T00:04:40.824Z,9.83
2023-03-01T00:07:42.213Z,12.77
2023-03-01T00:10:43.700Z,15.10
2023-03-01T00:13:46.839Z,12.90
2023-03-01T00:16:48.288Z,12.60
2023-03-01T00:19:50.898Z,12.97
2023-03-01T00:22:52.301Z,11.67
2023-03-01T00:25:54.728Z,12.40
2023-03-01T00:28:58.794Z,13.60
2023-03-01T00:32:00.402Z,11.77
2023-03-01T00:35:01.845Z,11.03
2023-03-01T00:38:04.826Z,13.40
2023-03-01T00:41:11.135Z,13.83
2023-03-01T00:44:12.597Z,14.67
2023-03-01T00:47:14.851Z,11.27
2023-03-01T00:50:16.611Z,12.80
2023-03-01T00:53:18.005Z,13.73
2023-03-01T00:56:20.815Z,14.27
2023-03-01T00:59:22.234Z,14.13
2023-03-01T01:02:23.773Z,11.47
2023-03-01T01:05:25.168Z,13.70
2023-03-01T01:08:28.358Z,14.53
2023-03-01T01:11:30.782Z,14.43
2023-03-01T01:14:32.522Z,18.93
2023-03-01T01:17:33.923Z,15.70
2023-03-01T01:20:37.299Z,12.70
2023-03-01T01:23:40.768Z,12.37
2023-03-01T01:26:43.170Z,14.40
2023-03-01T01:29:44.665Z,12.77
2023-03-01T01:32:46.098Z,14.60
2023-03-01T01:35:47.600Z,14.33
2023-03-01T01:38:49.243Z,16.57
2023-03-01T01:41:51.081Z,16.73
2023-03-01T01:45:28.492Z,14.07
2023-03-01T01:48:42.495Z,16.47
2023-03-01T01:51:49.113Z,14.53
2023-03-01T01:55:01.713Z,16.50
2023-03-01T01:58:07.328Z,14.20
2023-03-01T02:01:08.965Z,13.63
2023-03-01T02:04:10.757Z,14.93
2023-03-01T02:07:17.912Z,15.23
2023-03-01T02:10:20.007Z,16.07
2023-03-01T02:13:21.400Z,15.27
2023-03-01T02:16:23.003Z,16.27
2023-03-01T02:19:35.246Z,15.40
2023-03-01T02:22:39.168Z,16.70
2023-03-01T02:26:02.197Z,15.13
2023-03-01T02:29:04.057Z,18.80
2023-03-01T02:32:06.236Z,15.77
2023-03-01T02:35:10.033Z,15.40
2023-03-01T02:38:11.411Z,14.27
2023-03-01T02:41:16.238Z,14.90
2023-03-01T02:44:18.220Z,18.20
2023-03-01T02:47:19.642Z,15.13
2023-03-01T02:50:30.843Z,15.93
2023-03-01T02:54:14.307Z,15.93
2023-03-01T02:57:16.475Z,14.77
2023-03-01T03:00:23.489Z,15.97
2023-03-01T03:03:25.068Z,15.33
2023-03-01T03:06:26.539Z,14.93
2023-03-01T03:09:29.367Z,15.43
2023-03-01T03:12:31.740Z,15.43
2023-03-01T03:15:36.833Z,17.33
2023-03-01T03:18:38.221Z,16.80
2023-03-01T03:21:39.904Z,16.10
2023-03-01T03:24:41.308Z,19.90
2023-03-01T03:27:44.982Z,18.03
2023-03-01T03:30:47.620Z,17.93
2023-03-01T03:33:49.043Z,15.10
2023-03-01T03:37:00.280Z,17.37
2023-03-01T03:40:01.754Z,14.73
2023-03-01T03:43:04.822Z,17.73
2023-03-01T03:46:07.197Z,16.57
2023-03-01T03:49:08.675Z,18.70
2023-03-01T03:52:14.269Z,16.70
2023-03-01T03:55:20.083Z,17.20
2023-03-01T03:58:25.016Z,18.40
2023-03-01T04:01:26.547Z,16.20
2023-03-01T04:04:27.946Z,18.13
2023-03-01T04:07:29.318Z,18.70
2023-03-01T04:10:33.602Z,15.87
2023-03-01T04:13:35.025Z,16.20
2023-03-01T04:16:36.578Z,17.67
2023-03-01T04:19:37.964Z,15.47
2023-03-01T04:22:40.960Z,16.67
2023-03-01T04:25:55.232Z,18.53
2023-03-01T04:28:56.662Z,18.17
2023-03-01T04:31:58.118Z,18.07
2023-03-01T04:34:59.562Z,16.83
2023-03-01T04:38:01.048Z,19.33
2023-03-01T04:41:04.321Z,15.23
2023-03-01T04:44:06.626Z,16.27
2023-03-01T04:47:08.052Z,16.80
2023-03-01T04:50:11.669Z,20.00
2023-03-01T04:53:13.103Z,18.17
2023-03-01T04:56:15.354Z,17.70
2023-03-01T04:59:16.725Z,18.03
2023-03-01T05:02:18.128Z,17.97
2023-03-01T05:05:22.597Z,17.23
2023-03-01T05:08:23.972Z,17.00
2023-03-01T05:11:25.443Z,17.87
2023-03-01T05:14:26.832Z,15.77
2023-03-01T05:17:28.212Z,16.83
2023-03-01T05:20:30.863Z,16.00
2023-03-01T05:23:33.578Z,15.80
2023-03-01T05:26:34.959Z,18.17
2023-03-01T05:29:36.340Z,16.03
2023-03-01T05:32:37.720Z,15.33
2023-03-01T05:35:39.166Z,17.63
2023-03-01T05:38:40.558Z,17.87
2023-03-01T05:41:42.018Z,18.93
2023-03-01T05:44:43.423Z,18.53
2023-03-01T05:47:46.913Z,17.90
2023-03-01T05:50:48.490Z,19.53
2023-03-01T05:53:49.929Z,18.70
2023-03-01T05:56:51.336Z,19.90
2023-03-01T05:59:52.728Z,19.43
2023-03-01T06:02:55.425Z,18.70
2023-03-01T06:05:58.349Z,20.97
2023-03-01T06:08:59.814Z,20.60
2023-03-01T06:12:01.185Z,19.70
2023-03-01T06:15:03.020Z,26.97
2023-03-01T06:18:04.433Z,24.77
2023-03-01T06:21:07.643Z,21.87
2023-03-01T06:24:09.322Z,23.40
2023-03-01T06:27:10.734Z,22.50
2023-03-01T06:30:19.326Z,23.40
2023-03-01T06:33:25.242Z,22.10
2023-03-01T06:36:26.635Z,21.67
2023-03-01T06:39:28.994Z,20.73
2023-03-01T06:42:30.450Z,18.07
2023-03-01T06:45:31.860Z,22.57
2023-03-01T06:48:34.652Z,22.03
2023-03-01T06:51:37.696Z,20.83
2023-03-01T06:54:39.326Z,25.40
2023-03-01T06:57:40.686Z,21.17
2023-03-01T07:00:43.900Z,22.17
2023-03-01T07:03:45.345Z,21.37
2023-03-01T07:06:46.787Z,18.93
2023-03-01T07:09:49.920Z,19.40
2023-03-01T07:12:51.507Z,21.60
2023-03-01T07:15:53.066Z,19.13
2023-03-01T07:18:55.146Z,21.43
2023-03-01T07:21:56.806Z,20.77
2023-03-01T07:24:58.245Z,19.93
2023-03-01T07:28:00.015Z,19.53
2023-03-01T07:31:03.144Z,19.93
2023-03-01T07:34:04.528Z,20.83
2023-03-01T07:37:06.015Z,22.60
2023-03-01T07:40:08.391Z,21.63
2023-03-01T07:43:09.800Z,21.03
2023-03-01T07:46:11.287Z,21.50
2023-03-01T07:49:12.787Z,18.77
2023-03-01T07:52:14.183Z,18.17
2023-03-01T07:55:17.002Z,18.60
2023-03-01T07:58:18.465Z,18.23
2023-03-01T08:01:21.558Z,19.77
2023-03-01T08:04:24.100Z,20.23
2023-03-01T08:07:25.493Z,20.80
2023-03-01T08:10:27.007Z,19.10
2023-03-01T08:13:29.512Z,20.37
2023-03-01T08:16:31.383Z,19.43
2023-03-01T08:19:34.085Z,25.57
2023-03-01T08:22:35.522Z,21.50
2023-03-01T08:25:37.235Z,23.23
2023-03-01T08:28:39.571Z,18.53
2023-03-01T08:31:41.948Z,18.20
2023-03-01T08:34:43.382Z,18.90
2023-03-01T08:37:44.861Z,19.63
2023-03-01T08:40:46.288Z,20.13
2023-03-01T08:43:48.092Z,19.40
2023-03-01T08:46:50.926Z,21.53
2023-03-01T08:49:52.454Z,19.23
2023-03-01T08:52:53.838Z,18.87
2023-03-01T08:55:55.293Z,19.50
2023-03-01T08:58:56.662Z,22.83
2023-03-01T09:01:58.112Z,21.03
2023-03-01T09:04:59.573Z,19.97
2023-03-01T09:08:01.124Z,18.93
2023-03-01T09:11:07.633Z,21.17
2023-03-01T09:14:09.051Z,22.40
2023-03-01T09:17:10.546Z,22.33
2023-03-01T09:20:12.133Z,26.37
2023-03-01T09:23:13.519Z,21.57
2023-03-01T09:26:20.506Z,22.67
2023-03-01T09:29:22.736Z,20.30
2023-03-01T09:32:24.309Z,22.23
2023-03-01T09:35:25.854Z,23.83
2023-03-01T09:38:27.829Z,22.43
2023-03-01T09:41:47.477Z,22.23
2023-03-01T09:45:04.257Z,23.50
2023-03-01T09:48:13.586Z,22.53
2023-03-01T09:51:20.330Z,23.63
2023-03-01T09:54:21.821Z,23.20
2023-03-01T09:57:46.791Z,22.10
2023-03-01T10:00:50.593Z,24.93
2023-03-01T10:04:19.743Z,23.53
2023-03-01T10:07:29.095Z,23.43
2023-03-01T10:10:37.272Z,20.73
2023-03-01T10:13:49.998Z,20.30
2023-03-01T10:17:03.767Z,20.77
2023-03-01T10:20:39.561Z,24.23
2023-03-01T10:23:40.988Z,23.57
2023-03-01T10:26:49.251Z,24.90
2023-03-01T10:30:17.356Z,20.20
2023-03-01T10:33:23.030Z,22.63
2023-03-01T10:36:24.897Z,21.33
2023-03-01T10:39:27.660Z,20.10
2023-03-01T10:42:32.675Z,20.07
2023-03-01T10:45:37.300Z,22.43
2023-03-01T10:48:38.667Z,20.87
2023-03-01T10:51:45.664Z,24.10
2023-03-01T10:55:02.911Z,21.53
2023-03-01T10:58:18.104Z,21.67
2023-03-01T11:01:19.471Z,20.30
2023-03-01T11:04:20.913Z,19.83
2023-03-01T11:07:22.330Z,20.20
2023-03-01T11:10:33.151Z,18.03
2023-03-01T11:13:37.433Z,21.97
2023-03-01T11:16:41.951Z,20.47
2023-03-01T11:19:46.907Z,19.73
2023-03-01T11:22:56.192Z,18.27
2023-03-01T11:26:02.838Z,17.93
2023-03-01T11:29:08.125Z,16.97
2023-03-01T11:32:14.213Z,19.00
2023-03-01T11:35:23.667Z,19.20
2023-03-01T11:38:27.780Z,18.50
2023-03-01T11:41:36.160Z,16.67
2023-03-01T11:44:40.070Z,16.60
2023-03-01T11:48:12.797Z,19.03
2023-03-01T11:51:23.541Z,17.27
2023-03-01T11:54:41.834Z,17.27
2023-03-01T11:58:42.042Z,23.07
2023-03-01T12:01:49.258Z,18.43
2023-03-01T12:04:59.348Z,16.43
2023-03-01T12:08:09.227Z,16.07
2023-03-01T12:11:15.539Z,14.87
2023-03-01T12:14:23.053Z,16.67
2023-03-01T12:17:45.543Z,15.53
2023-03-01T12:21:05.799Z,17.70
2023-03-01T12:24:32.161Z,21.37
2023-03-01T12:28:09.774Z,17.10
2023-03-01T12:31:31.272Z,16.43
2023-03-01T12:35:10.118Z,17.30
2023-03-01T12:38:26.611Z,16.43
2023-03-01T12:41:49.283Z,17.90
2023-03-01T12:45:01.618Z,19.03
2023-03-01T12:48:40.852Z,19.43
2023-03-01T12:51:57.633Z,16.53
2023-03-01T12:55:03.523Z,15.67
2023-03-01T12:58:25.673Z,13.07
2023-03-01T13:01:52.574Z,15.70
2023-03-01T13:05:12.798Z,14.33
2023-03-01T13:08:23.178Z,14.47
2023-03-01T13:11:24.993Z,14.93
2023-03-01T13:14:26.317Z,16.93
2023-03-01T13:17:32.631Z,16.20
2023-03-01T13:20:42.907Z,18.37
2023-03-01T13:23:48.813Z,16.00
2023-03-01T13:27:08.388Z,16.60
2023-03-01T13:30:34.647Z,15.07
2023-03-01T13:33:50.286Z,17.90
2023-03-01T13:36:52.003Z,16.17
2023-03-01T13:39:53.800Z,13.23
2023-03-01T13:43:05.287Z,15.50
2023-03-01T13:46:17.663Z,15.37
2023-03-01T13:49:27.338Z,16.03
2023-03-01T13:52:43.076Z,15.73
2023-03-01T13:55:58.704Z,14.73
2023-03-01T13:59:13.549Z,15.33
2023-03-01T14:02:16.290Z,14.17
2023-03-01T14:05:17.687Z,13.30
2023-03-01T14:08:25.088Z,16.20
2023-03-01T14:11:29.540Z,14.20
2023-03-01T14:14:39.971Z,15.70
2023-03-01T14:17:56.852Z,13.70
2023-03-01T14:20:58.368Z,13.53
2023-03-01T14:24:00.216Z,13.07
2023-03-01T14:27:02.768Z,16.13
2023-03-01T14:30:15.988Z,14.73
2023-03-01T14:33:26.404Z,12.67
2023-03-01T14:36:31.128Z,15.03
2023-03-01T14:39:33.094Z,14.73
2023-03-01T14:42:37.653Z,16.83
2023-03-01T14:45:39.227Z,14.43
2023-03-01T14:48:40.816Z,12.70
2023-03-01T14:51:44.250Z,14.63
2023-03-01T14:54:49.279Z,14.27
2023-03-01T14:57:51.996Z,13.07
2023-03-01T15:00:56.251Z,13.90
2023-03-01T15:03:58.074Z,14.00
2023-03-01T15:07:05.736Z,14.30
2023-03-01T15:10:16.526Z,14.53
2023-03-01T15:13:27.428Z,12.53
2023-03-01T15:16:34.659Z,16.17
2023-03-01T15:19:36.359Z,14.17
2023-03-01T15:22:37.854Z,14.33
2023-03-01T15:25:45.540Z,16.73
2023-03-01T15:28:51.460Z,13.93
2023-03-01T15:32:00.253Z,13.13
2023-03-01T15:35:22.677Z,14.63
2023-03-01T15:38:32.720Z,15.23
2023-03-01T15:41:47.461Z,14.10
2023-03-01T15:44:48.879Z,14.57
2023-03-01T15:47:52.879Z,16.63
2023-03-01T15:50:59.231Z,15.70
2023-03-01T15:54:04.564Z,15.50
2023-03-01T15:57:05.986Z,14.90
2023-03-01T16:00:12.306Z,14.17
2023-03-01T16:03:13.752Z,15.00
2023-03-01T16:06:15.232Z,14.43
2023-03-01T16:09:16.711Z,13.43
2023-03-01T16:12:18.146Z,14.13
2023-03-01T16:15:25.262Z,15.47
2023-03-01T16:18:26.845Z,14.83
2023-03-01T16:21:28.259Z,13.47
2023-03-01T16:24:29.632Z,16.53
2023-03-01T16:27:31.008Z,15.53
2023-03-01T16:30:32.592Z,16.73
2023-03-01T16:33:34.860Z,14.90
2023-03-01T16:36:37.553Z,14.57
2023-03-01T16:39:39.572Z,14.80
2023-03-01T16:42:41.606Z,15.73
2023-03-01T16:45:45.507Z,14.03
2023-03-01T16:48:47.858Z,16.83
2023-03-01T16:51:49.367Z,14.27
2023-03-01T16:54:50.768Z,15.37
2023-03-01T16:57:52.191Z,14.87
2023-03-01T17:00:55.025Z,15.70
2023-03-01T17:03:56.926Z,15.47
2023-03-01T17:06:58.443Z,14.87
2023-03-01T17:10:04.374Z,16.47
2023-03-01T17:13:05.759Z,13.90
2023-03-01T17:16:10.410Z,15.50
2023-03-01T17:19:12.063Z,13.40
2023-03-01T17:22:13.988Z,15.13
2023-03-01T17:25:15.754Z,15.53
2023-03-01T17:28:17.250Z,15.70
2023-03-01T17:31:19.971Z,14.13
2023-03-01T17:34:21.484Z,15.87
2023-03-01T17:37:23.043Z,14.70
2023-03-01T17:40:24.409Z,14.90
2023-03-01T17:43:25.889Z,24.07
2023-03-01T17:46:27.387Z,21.07
2023-03-01T17:49:29.136Z,20.07
2023-03-01T17:52:31.199Z,19.10
2023-03-01T17:55:32.578Z,17.70
2023-03-01T17:58:34.298Z,18.33
2023-03-01T18:01:36.104Z,19.77
2023-03-01T18:04:37.537Z,18.47
2023-03-01T18:07:39.090Z,25.97
2023-03-01T18:10:40.604Z,45.53
2023-03-01T18:13:42.000Z,23.30
2023-03-01T18:16:43.553Z,18.90
2023-03-01T18:19:45.307Z,19.20
2023-03-01T18:22:47.544Z,18.07
2023-03-01T18:25:49.102Z,16.83
2023-03-01T18:28:52.566Z,15.40
2023-03-01T18:31:54.155Z,31.87
2023-03-01T18:34:55.579Z,41.83
2023-03-01T18:37:57.461Z,28.17
2023-03-01T18:40:59.172Z,29.67
2023-03-01T18:44:02.650Z,25.07
2023-03-01T18:47:04.210Z,25.07
2023-03-01T18:50:06.209Z,38.70
2023-03-01T18:53:08.059Z,33.73
2023-03-01T18:56:10.577Z,25.80
2023-03-01T18:59:12.655Z,18.00
2023-03-01T19:02:15.485Z,21.60
2023-03-01T19:05:17.563Z,20.30
2023-03-01T19:08:18.985Z,19.47
2023-03-01T19:11:21.776Z,16.90
2023-03-01T19:14:23.204Z,15.83
2023-03-01T19:17:30.336Z,14.90
2023-03-01T19:20:31.739Z,17.87
2023-03-01T19:23:36.603Z,16.93
2023-03-01T19:26:38.055Z,18.83
2023-03-01T19:29:39.789Z,15.30
2023-03-01T19:32:41.478Z,19.67
2023-03-01T19:35:42.922Z,16.63
2023-03-01T19:38:44.412Z,18.63
2023-03-01T19:41:48.216Z,18.07
2023-03-01T19:44:51.105Z,17.37
2023-03-01T19:47:52.535Z,20.33
2023-03-01T19:50:54.075Z,17.13
2023-03-01T19:53:55.940Z,17.33
2023-03-01T19:56:57.483Z,17.70
2023-03-01T19:59:59.364Z,16.67
2023-03-01T20:03:01.096Z,18.80
2023-03-01T20:06:10.605Z,20.53
2023-03-01T20:09:21.463Z,20.37
2023-03-01T20:12:23.722Z,18.37
2023-03-01T20:15:25.360Z,17.23
2023-03-01T20:18:27.238Z,17.60
2023-03-01T20:21:28.777Z,17.17
2023-03-01T20:24:33.307Z,18.37
2023-03-01T20:27:34.775Z,17.27
2023-03-01T20:30:37.739Z,16.37
2023-03-01T20:33:39.823Z,18.90
2023-03-01T20:36:42.683Z,16.63
2023-03-01T20:39:44.088Z,17.27
2023-03-01T20:42:45.464Z,17.50
2023-03-01T20:45:46.906Z,17.40
2023-03-01T20:48:48.356Z,17.23
2023-03-01T20:51:49.770Z,18.93
2023-03-01T20:54:51.243Z,19.13
2023-03-01T20:57:52.707Z,20.23
2023-03-01T21:00:54.132Z,19.03
2023-03-01T21:03:55.908Z,18.40
2023-03-01T21:06:57.428Z,20.97
2023-03-01T21:09:59.018Z,17.73
2023-03-01T21:13:00.411Z,16.43
2023-03-01T21:16:07.967Z,16.67
2023-03-01T21:19:09.492Z,18.00
2023-03-01T21:22:12.659Z,19.20
2023-03-01T21:25:14.103Z,19.67
2023-03-01T21:28:15.566Z,24.30
2023-03-01T21:31:19.860Z,26.03
2023-03-01T21:34:21.275Z,31.63
2023-03-01T21:37:28.341Z,53.80
2023-03-01T21:40:29.774Z,82.67
2023-03-01T21:43:31.205Z,38.87
2023-03-01T21:46:36.455Z,20.40
2023-03-01T21:49:38.035Z,19.30
2023-03-01T21:52:39.480Z,19.50
2023-03-01T21:55:47.455Z,22.07
2023-03-01T21:58:49.697Z,19.67
2023-03-01T22:01:51.774Z,19.23
2023-03-01T22:04:57.335Z,19.30
2023-03-01T22:07:58.794Z,19.70
2023-03-01T22:11:02.235Z,21.43
2023-03-01T22:14:04.701Z,20.77
2023-03-01T22:17:06.219Z,18.70
2023-03-01T22:20:08.270Z,18.23
2023-03-01T22:23:09.699Z,21.43
2023-03-01T22:26:27.766Z,18.70
2023-03-01T22:29:29.590Z,19.40
2023-03-01T22:32:31.209Z,18.80
2023-03-01T22:35:32.691Z,20.97
2023-03-01T22:38:34.174Z,16.97
2023-03-01T22:41:43.012Z,18.13
2023-03-01T22:44:44.536Z,18.00
2023-03-01T22:47:45.946Z,19.63
2023-03-01T22:50:48.486Z,18.80
2023-03-01T22:53:50.575Z,18.70
2023-03-01T22:56:51.963Z,17.97
2023-03-01T22:59:53.344Z,19.33
2023-03-01T23:02:54.801Z,23.83
2023-03-01T23:05:56.279Z,19.67
2023-03-01T23:09:00.320Z,19.03
2023-03-01T23:12:06.490Z,17.80
2023-03-01T23:15:08.949Z,22.57
2023-03-01T23:18:10.951Z,17.37
2023-03-01T23:21:14.769Z,18.17
2023-03-01T23:24:18.196Z,19.80
2023-03-01T23:27:19.639Z,18.17
2023-03-01T23:30:21.592Z,19.73
2023-03-01T23:33:23.100Z,20.63
2023-03-01T23:36:28.469Z,19.13
2023-03-01T23:39:31.982Z,18.00
2023-03-01T23:42:34.129Z,22.23
2023-03-01T23:45:42.976Z,21.43
2023-03-01T23:48:45.526Z,22.60
2023-03-01T23:51:47.783Z,20.57
2023-03-01T23:54:49.213Z,21.80
2023-03-01T23:57:50.633Z,22.50
